Time;durP1;ratioP1;P1;durP2;ratioP2;P2;SDS_P1;SDS_P2;PMS_P1;PMS_P2;Temp;Humidity;BMP_temperature;BMP_pressure;BME280_temperature;BME280_humidity;BME280_pressure;Samples;Min_cycle;Max_cycle;Signal;HPM_P1;HPM_P2
2021/07/11 00:00:48;;;;;;;;;;;14.50;93.10;;;;;;5057994;28;19912;-67
2021/07/11 00:03:13;;;;;;;;;;;14.50;93.70;;;;;;5059492;28;19950;-66
2021/07/11 00:05:39;;;;;;;;;;;14.50;93.70;;;;;;5060176;28;19931;-66
2021/07/11 00:08:05;;;;;;;;;;;14.50;93.20;;;;;;5054951;28;19996;-67
2021/07/11 00:10:30;;;;;;;;;;;14.60;93.50;;;;;;5060439;28;19921;-65
2021/07/11 00:12:56;;;;;;;;;;;14.60;93.70;;;;;;5058735;28;19976;-67
2021/07/11 00:15:23;;;;;;;;;;;14.60;93.30;;;;;;5055807;28;20257;-65
2021/07/11 00:17:53;;;;;;;;;;;14.70;93.80;;;;;;5053976;28;19928;-66
2021/07/11 00:20:18;;;;;;;;;;;14.70;93.60;;;;;;5059555;28;19917;-66
2021/07/11 00:22:44;;;;;;;;;;;14.70;93.50;;;;;;5055005;28;19939;-66
2021/07/11 00:25:11;;;;;;;;;;;14.80;93.70;;;;;;5058397;28;19916;-67
2021/07/11 00:27:37;;;;;;;;;;;14.80;93.70;;;;;;5057975;28;20419;-66
2021/07/11 00:30:03;;;;;;;;;;;15.00;94.00;;;;;;5056554;28;19953;-67
2021/07/11 00:32:29;;;;;;;;;;;15.00;94.00;;;;;;5058650;28;19977;-67
2021/07/11 00:34:54;;;;;;;;;;;15.00;94.00;;;;;;5054382;28;19912;-66
2021/07/11 00:37:20;;;;;;;;;;;15.00;93.90;;;;;;5060792;28;20063;-67
2021/07/11 00:39:45;;;;;;;;;;;15.10;93.80;;;;;;5053074;28;20040;-66
2021/07/11 00:42:11;;;;;;;;;;;15.10;93.80;;;;;;5058810;28;20394;-67
2021/07/11 00:44:37;;;;;;;;;;;15.10;93.20;;;;;;5054636;28;19909;-67
2021/07/11 00:47:02;;;;;;;;;;;15.20;92.60;;;;;;5058496;28;19928;-66
2021/07/11 00:49:28;;;;;;;;;;;15.20;92.60;;;;;;5054632;28;19921;-67
2021/07/11 00:51:53;;;;;;;;;;;15.30;93.00;;;;;;5058276;28;19928;-67
2021/07/11 00:54:20;;;;;;;;;;;15.30;92.70;;;;;;5054931;28;19974;-67
2021/07/11 00:56:45;;;;;;;;;;;15.30;92.10;;;;;;5056895;28;19951;-67
2021/07/11 00:59:11;;;;;;;;;;;15.30;92.30;;;;;;5057310;28;20389;-66
2021/07/11 01:01:38;;;;;;;;;;;15.30;92.90;;;;;;5057220;28;19912;-66
2021/07/11 01:04:13;;;;;;;;;;;15.30;92.50;;;;;;5059455;28;19938;-67
2021/07/11 01:06:40;;;;;;;;;;;15.40;92.50;;;;;;5063328;28;20354;-67
2021/07/11 01:09:06;;;;;;;;;;;15.40;92.30;;;;;;5054514;28;20337;-66
2021/07/11 01:11:34;;;;;;;;;;;15.40;92.30;;;;;;5058390;28;19936;-67
2021/07/11 01:14:00;;;;;;;;;;;15.40;92.80;;;;;;5056540;28;19943;-66
2021/07/11 01:16:28;;;;;;;;;;;15.40;92.50;;;;;;5055584;28;20027;-67
2021/07/11 01:18:59;;;;;;;;;;;15.50;92.00;;;;;;5059690;28;20285;-66
2021/07/11 01:21:25;;;;;;;;;;;15.40;92.20;;;;;;5060355;28;20035;-66
2021/07/11 01:24:00;;;;;;;;;;;15.40;92.10;;;;;;5060385;28;20429;-66
2021/07/11 01:26:29;;;;;;;;;;;15.50;92.00;;;;;;5060192;28;20008;-66
2021/07/11 01:28:55;;;;;;;;;;;15.40;91.70;;;;;;5051554;28;19947;-65
2021/07/11 01:31:21;;;;;;;;;;;15.50;91.90;;;;;;5058844;28;19941;-66
2021/07/11 01:33:48;;;;;;;;;;;15.50;91.70;;;;;;5058859;28;20313;-66
2021/07/11 01:36:13;;;;;;;;;;;15.50;92.00;;;;;;5051071;28;19919;-67
2021/07/11 01:38:42;;;;;;;;;;;15.50;91.90;;;;;;5055048;28;20003;-66
2021/07/11 01:41:09;;;;;;;;;;;15.50;91.90;;;;;;5062253;28;19916;-66
2021/07/11 01:43:35;;;;;;;;;;;15.50;92.10;;;;;;5061180;28;19924;-66
2021/07/11 01:46:01;;;;;;;;;;;15.50;92.10;;;;;;5066188;28;20273;-66
2021/07/11 01:48:29;;;;;;;;;;;15.50;92.20;;;;;;5061431;28;20004;-68
2021/07/11 01:50:55;;;;;;;;;;;15.50;92.20;;;;;;5060383;28;19916;-68
2021/07/11 01:53:27;;;;;;;;;;;15.50;91.90;;;;;;5060320;28;19931;-66
2021/07/11 01:55:53;;;;;;;;;;;15.50;91.50;;;;;;5052330;28;19995;-66
2021/07/11 01:58:19;;;;;;;;;;;15.60;91.80;;;;;;5062548;28;19975;-67
2021/07/11 02:00:45;;;;;;;;;;;15.60;91.70;;;;;;5064649;28;19916;-65
2021/07/11 02:03:14;;;;;;;;;;;15.60;91.90;;;;;;5052773;28;19948;-66
2021/07/11 02:05:40;;;;;;;;;;;15.60;91.70;;;;;;5065014;28;19920;-68
2021/07/11 02:08:05;;;;;;;;;;;15.70;91.60;;;;;;5060396;28;20475;-66
2021/07/11 02:10:31;;;;;;;;;;;15.70;91.70;;;;;;5058918;28;20019;-66
2021/07/11 02:13:00;;;;;;;;;;;15.60;91.80;;;;;;5065017;28;19912;-66
2021/07/11 02:15:29;;;;;;;;;;;15.70;91.70;;;;;;5064440;28;19986;-66
2021/07/11 02:17:56;;;;;;;;;;;15.70;92.00;;;;;;5063641;28;19994;-67
2021/07/11 02:20:21;;;;;;;;;;;15.60;91.80;;;;;;5058128;28;20417;-68
2021/07/11 02:22:47;;;;;;;;;;;15.70;91.70;;;;;;5062070;28;19940;-65
2021/07/11 02:25:17;;;;;;;;;;;15.70;91.60;;;;;;5060575;28;19923;-66
2021/07/11 02:27:46;;;;;;;;;;;15.70;91.40;;;;;;5059757;28;19971;-66
2021/07/11 02:30:15;;;;;;;;;;;15.70;91.30;;;;;;5052678;28;19953;-66
2021/07/11 02:32:44;;;;;;;;;;;15.70;91.30;;;;;;5060884;28;19975;-66
2021/07/11 02:35:11;;;;;;;;;;;15.70;91.80;;;;;;5058714;28;20303;-66
2021/07/11 02:37:39;;;;;;;;;;;15.70;91.60;;;;;;5053423;28;19972;-66
2021/07/11 02:40:07;;;;;;;;;;;15.80;91.60;;;;;;5052742;28;19913;-67
2021/07/11 02:42:33;;;;;;;;;;;15.80;91.50;;;;;;5053151;28;19916;-66
2021/07/11 02:44:58;;;;;;;;;;;15.80;91.60;;;;;;5056894;28;19912;-66
2021/07/11 02:47:30;;;;;;;;;;;15.80;91.80;;;;;;5063292;28;19983;-66
2021/07/11 02:49:58;;;;;;;;;;;15.80;91.70;;;;;;5064671;28;19916;-68
2021/07/11 02:52:24;;;;;;;;;;;15.80;91.70;;;;;;5057911;28;20050;-67
2021/07/11 02:55:08;;;;;;;;;;;15.80;91.80;;;;;;5051730;28;20028;-65
2021/07/11 02:57:35;;;;;;;;;;;15.90;91.40;;;;;;5060913;28;20046;-66
2021/07/11 03:00:00;;;;;;;;;;;15.90;91.90;;;;;;5064685;28;19952;-66
2021/07/11 03:02:26;;;;;;;;;;;15.80;91.80;;;;;;5064196;28;19943;-67
2021/07/11 03:04:53;;;;;;;;;;;15.80;92.10;;;;;;5061166;28;20187;-68
2021/07/11 03:07:19;;;;;;;;;;;15.80;92.10;;;;;;5056013;28;20657;-68
2021/07/11 03:09:44;;;;;;;;;;;15.80;92.30;;;;;;5064697;28;19912;-66
2021/07/11 03:12:10;;;;;;;;;;;15.80;92.10;;;;;;5065309;28;19951;-66
2021/07/11 03:14:37;;;;;;;;;;;15.80;92.10;;;;;;5055158;28;19959;-66
2021/07/11 03:17:02;;;;;;;;;;;15.80;92.00;;;;;;5061223;28;19917;-66
2021/07/11 03:19:29;;;;;;;;;;;15.80;91.70;;;;;;5064485;28;20367;-65
2021/07/11 03:21:55;;;;;;;;;;;15.80;92.00;;;;;;5058004;28;20313;-66
2021/07/11 03:24:25;;;;;;;;;;;15.80;91.90;;;;;;5055449;28;19998;-66
2021/07/11 03:26:51;;;;;;;;;;;15.80;91.80;;;;;;5054010;28;20388;-66
2021/07/11 03:29:26;;;;;;;;;;;15.80;91.90;;;;;;5054709;28;19916;-67
2021/07/11 03:31:56;;;;;;;;;;;15.90;91.80;;;;;;5060954;28;20325;-67
2021/07/11 03:34:26;;;;;;;;;;;15.90;91.70;;;;;;5053951;28;20304;-65
2021/07/11 03:36:52;;;;;;;;;;;15.90;91.50;;;;;;5057170;28;19916;-66
2021/07/11 03:39:18;;;;;;;;;;;15.90;91.70;;;;;;5050996;28;20157;-66
2021/07/11 03:41:45;;;;;;;;;;;15.90;91.50;;;;;;5063605;28;20289;-66
2021/07/11 03:44:11;;;;;;;;;;;15.90;91.60;;;;;;5062293;28;19925;-66
2021/07/11 03:46:38;;;;;;;;;;;15.90;91.90;;;;;;5060607;28;19928;-66
2021/07/11 03:49:05;;;;;;;;;;;16.00;91.90;;;;;;5064447;28;20042;-67
2021/07/11 03:51:32;;;;;;;;;;;16.00;91.70;;;;;;5061357;28;20412;-66
2021/07/11 03:53:59;;;;;;;;;;;16.00;91.80;;;;;;5055113;28;19917;-67
2021/07/11 03:56:28;;;;;;;;;;;16.00;91.90;;;;;;5061767;28;20064;-66
2021/07/11 03:58:55;;;;;;;;;;;16.00;92.10;;;;;;5063793;28;19923;-68
2021/07/11 04:01:23;;;;;;;;;;;16.00;91.90;;;;;;5059478;28;19919;-66
2021/07/11 04:03:48;;;;;;;;;;;16.10;91.80;;;;;;5056361;28;19917;-67
2021/07/11 04:06:15;;;;;;;;;;;16.10;91.90;;;;;;5063053;28;19978;-66
2021/07/11 04:08:41;;;;;;;;;;;16.20;92.10;;;;;;5059914;28;19921;-64
2021/07/11 04:11:07;;;;;;;;;;;16.20;91.90;;;;;;5063390;28;19920;-66
2021/07/11 04:13:33;;;;;;;;;;;16.20;91.70;;;;;;5060042;28;20226;-64
2021/07/11 04:16:00;;;;;;;;;;;16.30;91.60;;;;;;5058124;28;19947;-65
2021/07/11 04:18:26;;;;;;;;;;;16.30;92.00;;;;;;5054685;28;19920;-66
2021/07/11 04:20:53;;;;;;;;;;;16.40;91.40;;;;;;5060941;28;19917;-65
2021/07/11 04:23:20;;;;;;;;;;;16.40;91.70;;;;;;5061373;28;20000;-65
2021/07/11 04:25:46;;;;;;;;;;;16.40;91.20;;;;;;5053085;28;19913;-66
2021/07/11 04:28:12;;;;;;;;;;;16.40;91.20;;;;;;5062178;28;19923;-66
2021/07/11 04:30:38;;;;;;;;;;;16.50;91.50;;;;;;5063215;28;20407;-65
2021/07/11 04:33:04;;;;;;;;;;;16.50;91.60;;;;;;5061473;28;20003;-65
2021/07/11 04:35:30;;;;;;;;;;;16.50;91.30;;;;;;5057173;28;20317;-65
2021/07/11 04:37:55;;;;;;;;;;;16.60;91.30;;;;;;5049248;28;19912;-65
2021/07/11 04:40:21;;;;;;;;;;;16.60;91.30;;;;;;5058177;28;19957;-66
2021/07/11 04:42:47;;;;;;;;;;;16.70;90.90;;;;;;5058898;28;19913;-66
2021/07/11 04:45:12;;;;;;;;;;;16.70;90.50;;;;;;5049080;28;19913;-65
2021/07/11 04:47:38;;;;;;;;;;;16.90;91.00;;;;;;5056300;28;20625;-66
2021/07/11 04:50:05;;;;;;;;;;;16.90;90.80;;;;;;5049584;28;19916;-67
2021/07/11 04:52:31;;;;;;;;;;;16.90;90.70;;;;;;5056893;28;19917;-65
2021/07/11 04:54:56;;;;;;;;;;;17.00;90.30;;;;;;5055495;28;20369;-66
2021/07/11 04:57:24;;;;;;;;;;;17.00;90.20;;;;;;5055816;28;20131;-69
2021/07/11 04:59:49;;;;;;;;;;;17.00;90.20;;;;;;5054065;28;19948;-68
2021/07/11 05:02:15;;;;;;;;;;;17.00;90.20;;;;;;5062539;28;19916;-68
2021/07/11 05:04:41;;;;;;;;;;;17.10;90.00;;;;;;5063657;28;20016;-68
2021/07/11 05:07:06;;;;;;;;;;;17.10;90.10;;;;;;5054979;28;19973;-68
2021/07/11 05:09:32;;;;;;;;;;;17.20;90.10;;;;;;5055876;28;20004;-68
2021/07/11 05:11:57;;;;;;;;;;;17.20;89.60;;;;;;5062812;28;19970;-68
2021/07/11 05:14:23;;;;;;;;;;;17.20;89.60;;;;;;5054588;28;19935;-68
2021/07/11 05:16:48;;;;;;;;;;;17.30;89.90;;;;;;5062419;28;19916;-68
2021/07/11 05:19:14;;;;;;;;;;;17.30;89.60;;;;;;5051576;28;19957;-65
2021/07/11 05:21:39;;;;;;;;;;;17.40;89.50;;;;;;5060734;28;22250;-66
2021/07/11 05:24:05;;;;;;;;;;;17.40;89.00;;;;;;5058902;28;19959;-67
2021/07/11 05:26:31;;;;;;;;;;;17.50;88.70;;;;;;5047028;28;19916;-67
2021/07/11 05:28:56;;;;;;;;;;;17.50;89.00;;;;;;5063172;28;19913;-67
2021/07/11 05:31:21;;;;;;;;;;;17.50;88.70;;;;;;5061661;28;20019;-67
2021/07/11 05:33:47;;;;;;;;;;;17.60;89.10;;;;;;5061885;28;20387;-66
2021/07/11 05:36:13;;;;;;;;;;;17.70;89.20;;;;;;5055370;28;19928;-66
2021/07/11 05:38:40;;;;;;;;;;;17.70;89.10;;;;;;5054041;28;19912;-67
2021/07/11 05:41:06;;;;;;;;;;;17.70;89.00;;;;;;5057132;28;19950;-66
2021/07/11 05:43:31;;;;;;;;;;;17.80;89.10;;;;;;5058777;28;20394;-67
2021/07/11 05:45:57;;;;;;;;;;;17.90;88.60;;;;;;5050813;28;19928;-67
2021/07/11 05:48:22;;;;;;;;;;;17.90;88.40;;;;;;5062723;28;20081;-66
2021/07/11 05:50:48;;;;;;;;;;;18.00;88.40;;;;;;5063178;28;19924;-66
2021/07/11 05:53:13;;;;;;;;;;;18.00;87.70;;;;;;5057413;28;20000;-67
2021/07/11 05:55:40;;;;;;;;;;;18.10;88.00;;;;;;5056924;28;19920;-66
2021/07/11 05:58:06;;;;;;;;;;;18.20;87.40;;;;;;5058003;28;19923;-68
2021/07/11 06:00:31;;;;;;;;;;;18.20;87.20;;;;;;5057884;28;19979;-67
2021/07/11 06:02:57;;;;;;;;;;;18.30;87.60;;;;;;5057293;28;20058;-67
2021/07/11 06:05:22;;;;;;;;;;;18.20;86.50;;;;;;5060938;28;19913;-67
2021/07/11 06:07:48;;;;;;;;;;;18.50;86.60;;;;;;5050575;28;20447;-67
2021/07/11 06:10:13;;;;;;;;;;;18.50;86.20;;;;;;5059114;28;19939;-69
2021/07/11 06:12:39;;;;;;;;;;;18.50;84.90;;;;;;5062231;28;20155;-67
2021/07/11 06:15:05;;;;;;;;;;;18.60;85.90;;;;;;5060439;28;19963;-68
2021/07/11 06:17:32;;;;;;;;;;;18.60;86.00;;;;;;5057069;28;19923;-67
2021/07/11 06:19:58;;;;;;;;;;;18.70;85.90;;;;;;5035999;28;19917;-67
2021/07/11 06:22:24;;;;;;;;;;;18.60;85.30;;;;;;5060129;28;20003;-68
2021/07/11 06:24:49;;;;;;;;;;;18.50;84.90;;;;;;5059033;28;20003;-67
2021/07/11 06:27:14;;;;;;;;;;;18.50;85.80;;;;;;5057302;28;19935;-68
2021/07/11 06:29:40;;;;;;;;;;;18.50;86.80;;;;;;5056135;28;19912;-69
2021/07/11 06:32:06;;;;;;;;;;;18.30;86.70;;;;;;5055128;28;19920;-67
2021/07/11 06:34:31;;;;;;;;;;;18.20;86.50;;;;;;5050062;28;20546;-67
2021/07/11 06:36:56;;;;;;;;;;;18.20;86.90;;;;;;5060728;28;19927;-67
2021/07/11 06:39:22;;;;;;;;;;;18.10;87.20;;;;;;5064174;28;20380;-67
2021/07/11 06:41:47;;;;;;;;;;;18.10;87.40;;;;;;5044843;28;20065;-68
2021/07/11 06:44:13;;;;;;;;;;;18.10;87.20;;;;;;5063892;28;20114;-68
2021/07/11 06:46:38;;;;;;;;;;;18.10;87.70;;;;;;5062662;28;19927;-67
2021/07/11 06:49:04;;;;;;;;;;;18.00;88.40;;;;;;5062581;28;20022;-68
2021/07/11 06:51:29;;;;;;;;;;;18.00;88.50;;;;;;5061775;28;19916;-67
2021/07/11 06:53:55;;;;;;;;;;;18.00;88.40;;;;;;5060793;28;19927;-68
2021/07/11 06:56:20;;;;;;;;;;;18.00;88.90;;;;;;5061564;28;19927;-67
2021/07/11 06:58:46;;;;;;;;;;;18.00;88.80;;;;;;5061816;28;19992;-66
2021/07/11 07:01:11;;;;;;;;;;;18.00;88.90;;;;;;5059689;28;19920;-67
2021/07/11 07:03:37;;;;;;;;;;;18.00;89.10;;;;;;5057094;28;19920;-68
2021/07/11 07:06:02;;;;;;;;;;;18.20;88.40;;;;;;5056768;28;20015;-68
2021/07/11 07:08:28;;;;;;;;;;;18.50;88.10;;;;;;5058011;28;19996;-68
2021/07/11 07:10:54;;;;;;;;;;;18.80;86.80;;;;;;5060404;28;19932;-68
2021/07/11 07:13:20;;;;;;;;;;;19.20;87.20;;;;;;5062524;28;20323;-68
2021/07/11 07:15:46;;;;;;;;;;;19.40;86.20;;;;;;5061597;28;19960;-68
2021/07/11 07:18:11;;;;;;;;;;;19.50;84.10;;;;;;5063678;28;19923;-68
2021/07/11 07:20:37;;;;;;;;;;;19.80;85.70;;;;;;5063152;28;20019;-68
2021/07/11 07:23:02;;;;;;;;;;;20.00;82.80;;;;;;5059792;28;19923;-70
2021/07/11 07:25:28;;;;;;;;;;;20.10;82.00;;;;;;5058787;28;20333;-68
2021/07/11 07:27:53;;;;;;;;;;;20.30;81.80;;;;;;5061595;28;19908;-69
2021/07/11 07:30:19;;;;;;;;;;;20.50;81.60;;;;;;5058408;28;19921;-68
2021/07/11 07:32:48;;;;;;;;;;;20.70;82.00;;;;;;5059691;28;20302;-69
2021/07/11 07:35:15;;;;;;;;;;;20.90;80.40;;;;;;5054632;28;19996;-68
2021/07/11 07:37:40;;;;;;;;;;;21.00;79.40;;;;;;5061687;28;19915;-71
2021/07/11 07:40:06;;;;;;;;;;;21.00;77.20;;;;;;5062220;28;20277;-68
2021/07/11 07:42:32;;;;;;;;;;;21.30;80.00;;;;;;5058276;28;19931;-68
2021/07/11 07:44:57;;;;;;;;;;;21.50;78.70;;;;;;5061584;28;20155;-69
2021/07/11 07:47:23;;;;;;;;;;;21.50;77.20;;;;;;5058452;28;19935;-69
2021/07/11 07:49:49;;;;;;;;;;;21.70;77.00;;;;;;5061168;28;19935;-70
2021/07/11 07:52:14;;;;;;;;;;;22.00;76.80;;;;;;5059779;28;19983;-68
2021/07/11 07:54:39;;;;;;;;;;;22.00;77.60;;;;;;5056369;28;19913;-69
2021/07/11 07:57:05;;;;;;;;;;;21.80;75.50;;;;;;5060687;28;19939;-70
2021/07/11 07:59:30;;;;;;;;;;;21.70;77.50;;;;;;5064668;28;19912;-68
2021/07/11 08:01:56;;;;;;;;;;;21.50;75.10;;;;;;5064609;28;19920;-69
2021/07/11 08:04:22;;;;;;;;;;;21.60;77.80;;;;;;5062697;28;19913;-69
2021/07/11 08:06:48;;;;;;;;;;;21.50;76.90;;;;;;5049079;28;19962;-68
2021/07/11 08:09:14;;;;;;;;;;;21.30;78.60;;;;;;5059888;28;19923;-69
2021/07/11 08:11:40;;;;;;;;;;;21.70;79.40;;;;;;5052351;28;20353;-69
2021/07/11 08:14:05;;;;;;;;;;;21.60;78.90;;;;;;5058326;28;20028;-68
2021/07/11 08:16:31;;;;;;;;;;;21.60;79.50;;;;;;5047064;28;19920;-70
2021/07/11 08:18:56;;;;;;;;;;;21.90;77.40;;;;;;5053524;28;20027;-68
2021/07/11 08:21:22;;;;;;;;;;;22.40;77.40;;;;;;5055303;28;20012;-69
2021/07/11 08:23:48;;;;;;;;;;;22.50;73.60;;;;;;5053629;28;20056;-69
2021/07/11 08:26:13;;;;;;;;;;;22.80;76.90;;;;;;5058861;28;19917;-69
2021/07/11 08:28:39;;;;;;;;;;;23.00;73.20;;;;;;5052826;28;19920;-69
2021/07/11 08:31:04;;;;;;;;;;;23.30;72.20;;;;;;5054199;28;19977;-69
2021/07/11 08:33:30;;;;;;;;;;;23.30;70.60;;;;;;5060948;28;19912;-71
2021/07/11 08:35:56;;;;;;;;;;;23.50;71.10;;;;;;5053043;28;19917;-70
2021/07/11 08:38:21;;;;;;;;;;;23.60;70.00;;;;;;5058990;28;19920;-67
2021/07/11 08:40:47;;;;;;;;;;;23.70;70.40;;;;;;5051029;28;20025;-69
2021/07/11 08:43:12;;;;;;;;;;;24.00;69.70;;;;;;5062416;28;19935;-69
2021/07/11 08:45:38;;;;;;;;;;;24.00;68.20;;;;;;5063245;28;20032;-70
2021/07/11 08:48:04;;;;;;;;;;;24.00;68.70;;;;;;5063256;28;20245;-68
2021/07/11 08:50:31;;;;;;;;;;;24.20;68.70;;;;;;5053079;28;20111;-69
2021/07/11 08:52:57;;;;;;;;;;;24.40;68.80;;;;;;5062757;28;19912;-71
2021/07/11 08:55:23;;;;;;;;;;;24.50;66.60;;;;;;5062322;28;19920;-69
2021/07/11 08:57:50;;;;;;;;;;;24.90;67.80;;;;;;5057903;28;19924;-70
2021/07/11 09:00:16;;;;;;;;;;;24.80;65.30;;;;;;5053732;28;19924;-70
2021/07/11 09:02:42;;;;;;;;;;;24.70;64.90;;;;;;5045648;28;19931;-69
2021/07/11 09:05:19;;;;;;;;;;;25.00;67.70;;;;;;5051516;28;19913;-71
2021/07/11 09:07:55;;;;;;;;;;;25.10;63.80;;;;;;5062030;28;19966;-69
2021/07/11 09:10:27;;;;;;;;;;;25.20;65.70;;;;;;5054770;28;19916;-70
2021/07/11 09:12:53;;;;;;;;;;;25.30;64.30;;;;;;5047089;28;20518;-70
2021/07/11 09:15:27;;;;;;;;;;;25.50;64.70;;;;;;5058780;28;19912;-69
2021/07/11 09:17:54;;;;;;;;;;;25.50;63.50;;;;;;5062584;28;19920;-70
2021/07/11 09:20:19;;;;;;;;;;;25.80;63.00;;;;;;5060380;28;19967;-71
2021/07/11 09:22:54;;;;;;;;;;;25.80;63.70;;;;;;5059741;28;20048;-70
2021/07/11 09:25:20;;;;;;;;;;;25.90;62.30;;;;;;5061710;28;19920;-69
2021/07/11 09:27:46;;;;;;;;;;;26.00;60.10;;;;;;5058324;28;19912;-70
2021/07/11 09:30:12;;;;;;;;;;;26.10;60.90;;;;;;5055657;28;20007;-69
2021/07/11 09:32:37;;;;;;;;;;;26.20;59.00;;;;;;5054657;28;19920;-70
2021/07/11 09:35:09;;;;;;;;;;;26.20;59.40;;;;;;5050402;28;19984;-70
2021/07/11 09:37:36;;;;;;;;;;;26.60;63.60;;;;;;5055458;28;19939;-70
2021/07/11 09:40:03;;;;;;;;;;;26.70;60.30;;;;;;5051499;28;20358;-69
2021/07/11 09:42:34;;;;;;;;;;;26.70;59.40;;;;;;5054998;28;19931;-70
2021/07/11 09:45:01;;;;;;;;;;;26.80;61.60;;;;;;5059225;28;20007;-69
2021/07/11 09:47:27;;;;;;;;;;;27.00;59.10;;;;;;5060323;28;20234;-69
2021/07/11 09:49:56;;;;;;;;;;;26.80;56.40;;;;;;5055674;28;19959;-70
2021/07/11 09:52:21;;;;;;;;;;;26.50;55.10;;;;;;5061154;28;20366;-70
2021/07/11 09:55:00;;;;;;;;;;;26.90;54.20;;;;;;5060988;28;20091;-70
2021/07/11 09:57:36;;;;;;;;;;;27.10;56.60;;;;;;5060729;28;20015;-70
2021/07/11 10:00:05;;;;;;;;;;;27.10;59.50;;;;;;5059346;28;20046;-69
2021/07/11 10:02:30;;;;;;;;;;;27.10;55.40;;;;;;5060803;28;20250;-69
2021/07/11 10:04:56;;;;;;;;;;;27.50;56.90;;;;;;5054204;28;19927;-68
2021/07/11 10:07:21;;;;;;;;;;;27.70;55.70;;;;;;5058252;28;20380;-68
2021/07/11 10:09:47;;;;;;;;;;;28.00;52.10;;;;;;5059111;28;20100;-69
2021/07/11 10:12:13;;;;;;;;;;;28.00;52.20;;;;;;5059834;28;19913;-68
2021/07/11 10:14:39;;;;;;;;;;;28.20;54.40;;;;;;5054730;28;19917;-70
2021/07/11 10:17:04;;;;;;;;;;;28.50;52.40;;;;;;5059986;28;19939;-68
2021/07/11 10:19:31;;;;;;;;;;;28.40;52.60;;;;;;5061026;28;20066;-70
2021/07/11 10:21:56;;;;;;;;;;;28.50;50.40;;;;;;5064639;28;20420;-67
2021/07/11 10:24:23;;;;;;;;;;;28.90;49.30;;;;;;5057374;28;19913;-69
2021/07/11 10:26:49;;;;;;;;;;;28.90;53.00;;;;;;5059554;28;19921;-69
2021/07/11 10:29:19;;;;;;;;;;;28.50;48.20;;;;;;5047746;28;19912;-70
2021/07/11 10:31:46;;;;;;;;;;;28.20;51.80;;;;;;5063657;28;20011;-69
2021/07/11 10:34:12;;;;;;;;;;;28.50;52.60;;;;;;5062920;28;19949;-69
2021/07/11 10:36:39;;;;;;;;;;;28.00;52.20;;;;;;5053681;28;20047;-68
2021/07/11 10:39:08;;;;;;;;;;;28.20;52.40;;;;;;5060492;28;20397;-69
2021/07/11 10:41:33;;;;;;;;;;;28.60;54.60;;;;;;5059364;28;19982;-70
2021/07/11 10:43:59;;;;;;;;;;;28.60;52.90;;;;;;5058323;28;19920;-70
2021/07/11 10:46:37;;;;;;;;;;;28.60;51.40;;;;;;5051996;28;20391;-69
2021/07/11 10:49:10;;;;;;;;;;;29.00;50.30;;;;;;5057045;28;19912;-70
2021/07/11 10:51:46;;;;;;;;;;;28.80;49.70;;;;;;5062744;28;19927;-70
2021/07/11 10:54:31;;;;;;;;;;;29.30;49.70;;;;;;5059440;28;19921;-69
2021/07/11 10:57:03;;;;;;;;;;;29.10;47.50;;;;;;5054321;28;20352;-69
2021/07/11 10:59:30;;;;;;;;;;;28.90;50.40;;;;;;5064932;28;19952;-69
2021/07/11 11:01:56;;;;;;;;;;;29.00;51.50;;;;;;5063965;28;19912;-70
2021/07/11 11:04:22;;;;;;;;;;;29.00;49.80;;;;;;5063422;28;19941;-68
2021/07/11 11:06:48;;;;;;;;;;;29.00;47.40;;;;;;5053944;28;19916;-68
2021/07/11 11:09:35;;;;;;;;;;;29.00;50.00;;;;;;5059645;28;19973;-67
2021/07/11 11:12:01;;;;;;;;;;;29.30;48.50;;;;;;5056391;28;19916;-67
2021/07/11 11:14:27;;;;;;;;;;;29.50;48.50;;;;;;5062051;28;19978;-67
2021/07/11 11:16:52;;;;;;;;;;;29.60;45.80;;;;;;5050056;28;19948;-67
2021/07/11 11:19:18;;;;;;;;;;;28.90;45.10;;;;;;5054517;28;19917;-68
2021/07/11 11:21:51;;;;;;;;;;;28.70;50.70;;;;;;5063783;28;19913;-67
2021/07/11 11:24:17;;;;;;;;;;;29.00;45.70;;;;;;5061576;28;20337;-67
2021/07/11 11:26:44;;;;;;;;;;;29.30;48.60;;;;;;5058636;28;20019;-68
2021/07/11 11:29:09;;;;;;;;;;;29.80;49.20;;;;;;5056454;28;20463;-67
2021/07/11 11:31:35;;;;;;;;;;;29.10;45.50;;;;;;5063321;28;19916;-68
2021/07/11 11:34:19;;;;;;;;;;;29.70;46.30;;;;;;5054612;28;20255;-68
2021/07/11 11:36:51;;;;;;;;;;;30.00;44.10;;;;;;5059776;28;20086;-68
2021/07/11 11:39:16;;;;;;;;;;;30.40;46.20;;;;;;5055869;28;20155;-68
2021/07/11 11:41:42;;;;;;;;;;;29.40;45.70;;;;;;5053469;28;20239;-68
2021/07/11 11:44:15;;;;;;;;;;;30.00;45.00;;;;;;5055966;28;19917;-69
2021/07/11 11:46:42;;;;;;;;;;;30.40;44.50;;;;;;5054943;28;20377;-68
2021/07/11 11:49:13;;;;;;;;;;;30.40;45.00;;;;;;5060388;28;20369;-68
2021/07/11 11:51:49;;;;;;;;;;;28.90;45.90;;;;;;5064012;28;20060;-68
2021/07/11 11:54:21;;;;;;;;;;;29.70;45.80;;;;;;5055024;28;20314;-67
2021/07/11 11:56:47;;;;;;;;;;;29.40;46.50;;;;;;5056684;28;20377;-68
2021/07/11 11:59:13;;;;;;;;;;;29.10;45.80;;;;;;5064964;28;19920;-67
2021/07/11 12:01:39;;;;;;;;;;;28.80;49.20;;;;;;5047960;28;20678;-67
2021/07/11 12:04:08;;;;;;;;;;;28.40;48.30;;;;;;5050651;28;20011;-66
2021/07/11 12:06:33;;;;;;;;;;;27.60;49.20;;;;;;5058036;28;19908;-67
2021/07/11 12:08:59;;;;;;;;;;;28.00;50.10;;;;;;5059765;28;19931;-67
2021/07/11 12:11:24;;;;;;;;;;;28.10;52.90;;;;;;5052390;28;19967;-66
2021/07/11 12:13:50;;;;;;;;;;;28.20;46.30;;;;;;5061275;28;20163;-65
2021/07/11 12:16:17;;;;;;;;;;;28.50;45.30;;;;;;5061894;28;19920;-67
2021/07/11 12:18:43;;;;;;;;;;;28.90;49.50;;;;;;5054826;28;20000;-66
2021/07/11 12:21:08;;;;;;;;;;;28.90;49.10;;;;;;5055797;28;20087;-67
2021/07/11 12:23:34;;;;;;;;;;;28.60;49.80;;;;;;5059004;28;19913;-66
2021/07/11 12:26:02;;;;;;;;;;;28.50;51.60;;;;;;5059983;28;19942;-67
2021/07/11 12:28:27;;;;;;;;;;;28.50;51.30;;;;;;5057927;28;19912;-66
2021/07/11 12:30:54;;;;;;;;;;;28.50;50.90;;;;;;5057090;28;19916;-66
2021/07/11 12:33:32;;;;;;;;;;;28.70;52.80;;;;;;5057494;28;19942;-67
2021/07/11 12:35:58;;;;;;;;;;;28.30;51.40;;;;;;5054584;28;20051;-67
2021/07/11 12:38:27;;;;;;;;;;;29.00;50.30;;;;;;5054112;28;19917;-66
2021/07/11 12:40:56;;;;;;;;;;;28.70;47.80;;;;;;5059177;28;19996;-66
2021/07/11 12:43:28;;;;;;;;;;;28.90;48.80;;;;;;5058271;28;19913;-67
2021/07/11 12:46:15;;;;;;;;;;;28.50;49.70;;;;;;5056067;28;20016;-69
2021/07/11 12:48:43;;;;;;;;;;;28.30;49.30;;;;;;5052243;28;20014;-68
2021/07/11 12:51:20;;;;;;;;;;;27.80;53.80;;;;;;5061237;28;20359;-69
2021/07/11 12:54:09;;;;;;;;;;;27.10;55.40;;;;;;5056327;28;20083;-69
2021/07/11 12:56:34;;;;;;;;;;;26.70;56.50;;;;;;5044899;28;19958;-68
2021/07/11 12:59:04;;;;;;;;;;;26.60;58.20;;;;;;5059474;28;19950;-68
2021/07/11 13:01:29;;;;;;;;;;;26.10;57.10;;;;;;5054829;28;19997;-68
2021/07/11 13:03:58;;;;;;;;;;;26.00;61.00;;;;;;5056842;28;20349;-68
2021/07/11 13:06:31;;;;;;;;;;;25.70;63.20;;;;;;5057910;28;19948;-68
2021/07/11 13:08:56;;;;;;;;;;;24.80;70.50;;;;;;5056695;28;20438;-68
2021/07/11 13:11:22;;;;;;;;;;;23.50;76.50;;;;;;5056868;28;19913;-68
2021/07/11 13:13:47;;;;;;;;;;;22.90;80.40;;;;;;5056318;28;20372;-69
2021/07/11 13:16:13;;;;;;;;;;;22.40;84.20;;;;;;5055944;28;19920;-70
2021/07/11 13:18:38;;;;;;;;;;;22.10;85.00;;;;;;5060155;28;19924;-69
2021/07/11 13:21:04;;;;;;;;;;;22.00;86.90;;;;;;5056419;28;19932;-69
2021/07/11 13:23:29;;;;;;;;;;;21.80;86.10;;;;;;5058173;28;20012;-70
2021/07/11 13:25:55;;;;;;;;;;;21.70;87.20;;;;;;5060078;28;19923;-69
2021/07/11 13:28:20;;;;;;;;;;;21.50;88.00;;;;;;5053942;28;19912;-69
2021/07/11 13:30:46;;;;;;;;;;;21.40;91.60;;;;;;5055674;28;20003;-69
2021/07/11 13:33:12;;;;;;;;;;;21.40;90.70;;;;;;5059200;28;19913;-70
2021/07/11 13:35:37;;;;;;;;;;;21.50;89.70;;;;;;5057192;28;19920;-69
2021/07/11 13:38:03;;;;;;;;;;;21.50;90.20;;;;;;5058074;28;19916;-70
2021/07/11 13:40:28;;;;;;;;;;;21.70;90.80;;;;;;5058280;28;20371;-69
2021/07/11 13:42:54;;;;;;;;;;;21.80;89.90;;;;;;5059854;28;19913;-68
2021/07/11 13:45:20;;;;;;;;;;;22.00;90.00;;;;;;5058368;28;19913;-69
2021/07/11 13:47:46;;;;;;;;;;;22.50;90.50;;;;;;5056623;28;19936;-69
2021/07/11 13:50:12;;;;;;;;;;;22.70;89.90;;;;;;5055599;28;19970;-69
2021/07/11 13:52:38;;;;;;;;;;;23.50;89.50;;;;;;5054810;28;19917;-68
2021/07/11 13:55:04;;;;;;;;;;;23.80;88.50;;;;;;5054456;28;19958;-69
2021/07/11 13:57:30;;;;;;;;;;;24.00;84.80;;;;;;5058269;28;19916;-69
2021/07/11 13:59:55;;;;;;;;;;;24.20;85.70;;;;;;5061050;28;19916;-69
2021/07/11 14:02:25;;;;;;;;;;;24.20;83.90;;;;;;5060525;28;19924;-68
2021/07/11 14:04:50;;;;;;;;;;;24.60;83.80;;;;;;5058544;28;19913;-69
2021/07/11 14:07:16;;;;;;;;;;;24.60;83.00;;;;;;5061314;28;20195;-69
2021/07/11 14:09:42;;;;;;;;;;;24.70;80.50;;;;;;5058669;28;19913;-69
2021/07/11 14:12:07;;;;;;;;;;;25.20;77.30;;;;;;5059173;28;19924;-69
2021/07/11 14:14:33;;;;;;;;;;;25.50;77.10;;;;;;5057770;28;19912;-71